Tannersville, Pennsylvania
Current Conditions -  °F | °C
As of 12:53 PM on Friday 28 Nov 2014 (Local Time) from KMPO Reporting Station
Broken Clouds Broken Clouds  
Wind Chill: 13°   Ceiling: 3300
Heat Index: 25°   Visibility: 10mi
Dew Point: 11°   Wind: 14mph
Humidity: 55%   Direction: 330°NNW
Pressure: 30.09"   Gusts: 22mph
Location:  41.04°N, 75.31°W
Report Text: KMPO 281753Z AUTO 33012G19KT 10SM SCT027 BKN033 M04/M12 A3009 RMK AO2 PK WND 30027/1729 SLP216 60000 T10391117 11039 21050 56009
Loading
Personal Weather Stations






























Interactive Weather Map New forecast layout! Learn more

10-Day Weather Forecast

Advertisements
Track Severe Weather on mobile